Terminal Aerodrome Forecast
Issued by NWS

Home | Current Version | Previous Version | Graphics & Text | Print | Product List | Glossary Off
Versions: 1 2 3 4 5 6 7 8 9 10 11 12 13 14 15 16 17 18 19 20

006
FTUS43 KDDC 191738
TAFHYS
TAF
KHYS 191738Z 1918/2018 06014G20KT P6SM OVC050
      TEMPO 1918/1920 07010KT 3SM -RA BR OVC030
     FM200200 04013G20KT 5SM -SHRA BR OVC005=

USA.gov is the U.S. government's official web portal to all federal, state and local government web resources and services.